sensor_id;sensor_type;location;lat;lon;timestamp;temperature;humidity
14053;DHT22;7101;51.600;7.310;2022-10-17T00:00:19;13.30;99.90
14053;DHT22;7101;51.600;7.310;2022-10-17T00:02:45;13.30;99.90
14053;DHT22;7101;51.600;7.310;2022-10-17T00:05:12;13.30;99.90
14053;DHT22;7101;51.600;7.310;2022-10-17T00:07:39;13.30;99.90
14053;DHT22;7101;51.600;7.310;2022-10-17T00:10:08;13.30;99.90
14053;DHT22;7101;51.600;7.310;2022-10-17T00:12:34;13.30;99.90
14053;DHT22;7101;51.600;7.310;2022-10-17T00:15:02;13.40;99.90
14053;DHT22;7101;51.600;7.310;2022-10-17T00:17:30;13.30;99.90
14053;DHT22;7101;51.600;7.310;2022-10-17T00:19:57;13.20;99.90
14053;DHT22;7101;51.600;7.310;2022-10-17T00:22:24;13.20;99.90
14053;DHT22;7101;51.600;7.310;2022-10-17T00:24:51;13.10;99.90
14053;DHT22;7101;51.600;7.310;2022-10-17T00:27:20;13.10;99.90
14053;DHT22;7101;51.600;7.310;2022-10-17T00:29:47;13.10;99.90
14053;DHT22;7101;51.600;7.310;2022-10-17T00:32:14;13.00;99.90
14053;DHT22;7101;51.600;7.310;2022-10-17T00:34:41;13.00;99.90
14053;DHT22;7101;51.600;7.310;2022-10-17T00:37:14;13.00;99.90
14053;DHT22;7101;51.600;7.310;2022-10-17T00:39:41;13.00;99.90
14053;DHT22;7101;51.600;7.310;2022-10-17T00:42:10;13.00;99.90
14053;DHT22;7101;51.600;7.310;2022-10-17T00:45:03;12.90;99.90
14053;DHT22;7101;51.600;7.310;2022-10-17T00:47:32;12.90;99.90
14053;DHT22;7101;51.600;7.310;2022-10-17T00:50:01;12.90;99.90
14053;DHT22;7101;51.600;7.310;2022-10-17T00:52:33;12.80;99.90
14053;DHT22;7101;51.600;7.310;2022-10-17T00:55:03;12.80;99.90
14053;DHT22;7101;51.600;7.310;2022-10-17T00:57:35;12.80;99.90
14053;DHT22;7101;51.600;7.310;2022-10-17T01:00:06;12.80;99.90
14053;DHT22;7101;51.600;7.310;2022-10-17T01:02:34;12.80;99.90
14053;DHT22;7101;51.600;7.310;2022-10-17T01:05:02;12.80;99.90
14053;DHT22;7101;51.600;7.310;2022-10-17T01:07:29;12.80;99.90
14053;DHT22;7101;51.600;7.310;2022-10-17T01:09:56;12.80;99.90
14053;DHT22;7101;51.600;7.310;2022-10-17T01:12:27;12.80;99.90
14053;DHT22;7101;51.600;7.310;2022-10-17T01:15:07;12.80;99.90
14053;DHT22;7101;51.600;7.310;2022-10-17T01:17:44;12.80;99.90
14053;DHT22;7101;51.600;7.310;2022-10-17T01:20:39;12.80;99.90
14053;DHT22;7101;51.600;7.310;2022-10-17T01:23:26;12.90;99.90
14053;DHT22;7101;51.600;7.310;2022-10-17T01:26:02;12.90;99.90
14053;DHT22;7101;51.600;7.310;2022-10-17T01:29:08;12.90;99.90
14053;DHT22;7101;51.600;7.310;2022-10-17T01:31:45;12.90;99.90
14053;DHT22;7101;51.600;7.310;2022-10-17T01:34:15;13.00;99.90
14053;DHT22;7101;51.600;7.310;2022-10-17T01:36:48;12.90;99.90
14053;DHT22;7101;51.600;7.310;2022-10-17T01:39:20;12.90;99.90
14053;DHT22;7101;51.600;7.310;2022-10-17T01:41:54;12.80;99.90
14053;DHT22;7101;51.600;7.310;2022-10-17T01:44:29;12.70;99.90
14053;DHT22;7101;51.600;7.310;2022-10-17T01:47:05;12.70;99.90
14053;DHT22;7101;51.600;7.310;2022-10-17T01:49:34;12.70;99.90
14053;DHT22;7101;51.600;7.310;2022-10-17T01:52:06;12.80;99.90
14053;DHT22;7101;51.600;7.310;2022-10-17T01:54:38;13.00;99.90
14053;DHT22;7101;51.600;7.310;2022-10-17T01:57:12;13.00;99.90
14053;DHT22;7101;51.600;7.310;2022-10-17T01:59:43;12.90;99.90
14053;DHT22;7101;51.600;7.310;2022-10-17T02:02:16;12.90;99.90
14053;DHT22;7101;51.600;7.310;2022-10-17T02:04:44;12.90;99.90
14053;DHT22;7101;51.600;7.310;2022-10-17T02:07:12;12.90;99.90
14053;DHT22;7101;51.600;7.310;2022-10-17T02:09:40;12.90;99.90
14053;DHT22;7101;51.600;7.310;2022-10-17T02:12:23;12.90;99.90
14053;DHT22;7101;51.600;7.310;2022-10-17T02:15:07;12.80;99.90
14053;DHT22;7101;51.600;7.310;2022-10-17T02:17:43;12.80;99.90
14053;DHT22;7101;51.600;7.310;2022-10-17T02:20:19;12.70;99.90
14053;DHT22;7101;51.600;7.310;2022-10-17T02:22:51;12.70;99.90
14053;DHT22;7101;51.600;7.310;2022-10-17T02:25:26;12.70;99.90
14053;DHT22;7101;51.600;7.310;2022-10-17T02:27:59;12.60;99.90
14053;DHT22;7101;51.600;7.310;2022-10-17T02:30:34;12.60;99.90
14053;DHT22;7101;51.600;7.310;2022-10-17T02:33:05;12.50;99.90
14053;DHT22;7101;51.600;7.310;2022-10-17T02:35:37;12.50;99.90
14053;DHT22;7101;51.600;7.310;2022-10-17T02:38:07;12.50;99.90
14053;DHT22;7101;51.600;7.310;2022-10-17T02:40:36;12.40;99.90
14053;DHT22;7101;51.600;7.310;2022-10-17T02:43:05;12.40;99.90
14053;DHT22;7101;51.600;7.310;2022-10-17T02:45:33;12.40;99.90
14053;DHT22;7101;51.600;7.310;2022-10-17T02:48:05;12.50;99.90
14053;DHT22;7101;51.600;7.310;2022-10-17T02:50:48;12.40;99.90
14053;DHT22;7101;51.600;7.310;2022-10-17T02:53:23;12.40;99.90
14053;DHT22;7101;51.600;7.310;2022-10-17T02:55:53;12.40;99.90
14053;DHT22;7101;51.600;7.310;2022-10-17T02:58:25;12.30;99.90
14053;DHT22;7101;51.600;7.310;2022-10-17T03:00:53;12.40;99.90
14053;DHT22;7101;51.600;7.310;2022-10-17T03:03:24;12.30;99.90
14053;DHT22;7101;51.600;7.310;2022-10-17T03:05:52;12.40;99.90
14053;DHT22;7101;51.600;7.310;2022-10-17T03:08:19;12.30;99.90
14053;DHT22;7101;51.600;7.310;2022-10-17T03:10:46;12.40;99.90
14053;DHT22;7101;51.600;7.310;2022-10-17T03:13:14;12.30;99.90
14053;DHT22;7101;51.600;7.310;2022-10-17T03:15:41;12.30;99.90
14053;DHT22;7101;51.600;7.310;2022-10-17T03:18:08;12.30;99.90
14053;DHT22;7101;51.600;7.310;2022-10-17T03:20:37;12.30;99.90
14053;DHT22;7101;51.600;7.310;2022-10-17T03:23:04;12.30;99.90
14053;DHT22;7101;51.600;7.310;2022-10-17T03:25:31;12.30;99.90
14053;DHT22;7101;51.600;7.310;2022-10-17T03:27:58;12.30;99.90
14053;DHT22;7101;51.600;7.310;2022-10-17T03:30:26;12.40;99.90
14053;DHT22;7101;51.600;7.310;2022-10-17T03:32:53;12.30;99.90
14053;DHT22;7101;51.600;7.310;2022-10-17T03:35:20;12.30;99.90
14053;DHT22;7101;51.600;7.310;2022-10-17T03:37:48;12.30;99.90
14053;DHT22;7101;51.600;7.310;2022-10-17T03:40:15;12.30;99.90
14053;DHT22;7101;51.600;7.310;2022-10-17T03:42:42;12.30;99.90
14053;DHT22;7101;51.600;7.310;2022-10-17T03:45:09;12.30;99.90
14053;DHT22;7101;51.600;7.310;2022-10-17T03:47:36;12.30;99.90
14053;DHT22;7101;51.600;7.310;2022-10-17T03:50:04;12.30;99.90
14053;DHT22;7101;51.600;7.310;2022-10-17T03:52:33;12.30;99.90
14053;DHT22;7101;51.600;7.310;2022-10-17T03:55:01;12.40;99.90
14053;DHT22;7101;51.600;7.310;2022-10-17T03:57:28;12.40;99.90
14053;DHT22;7101;51.600;7.310;2022-10-17T03:59:55;12.50;99.90
14053;DHT22;7101;51.600;7.310;2022-10-17T04:02:23;12.50;99.90
14053;DHT22;7101;51.600;7.310;2022-10-17T04:04:50;12.60;99.90
14053;DHT22;7101;51.600;7.310;2022-10-17T04:07:16;12.60;99.90
14053;DHT22;7101;51.600;7.310;2022-10-17T04:09:43;12.70;99.90
14053;DHT22;7101;51.600;7.310;2022-10-17T04:12:11;12.70;99.90
14053;DHT22;7101;51.600;7.310;2022-10-17T04:14:38;12.80;99.90
14053;DHT22;7101;51.600;7.310;2022-10-17T04:17:05;12.90;99.90
14053;DHT22;7101;51.600;7.310;2022-10-17T04:19:33;13.10;99.90
14053;DHT22;7101;51.600;7.310;2022-10-17T04:22:02;13.00;99.90
14053;DHT22;7101;51.600;7.310;2022-10-17T04:24:33;13.00;99.90
14053;DHT22;7101;51.600;7.310;2022-10-17T04:27:00;13.10;99.90
14053;DHT22;7101;51.600;7.310;2022-10-17T04:29:28;13.10;99.90
14053;DHT22;7101;51.600;7.310;2022-10-17T04:31:55;13.10;99.90
14053;DHT22;7101;51.600;7.310;2022-10-17T04:34:22;13.10;99.90
14053;DHT22;7101;51.600;7.310;2022-10-17T04:36:49;13.00;99.90
14053;DHT22;7101;51.600;7.310;2022-10-17T04:39:16;13.00;99.90
14053;DHT22;7101;51.600;7.310;2022-10-17T04:41:44;13.00;99.90
14053;DHT22;7101;51.600;7.310;2022-10-17T04:44:14;13.10;99.90
14053;DHT22;7101;51.600;7.310;2022-10-17T04:46:42;13.10;99.90
14053;DHT22;7101;51.600;7.310;2022-10-17T04:49:09;13.20;99.90
14053;DHT22;7101;51.600;7.310;2022-10-17T04:51:37;13.20;99.90
14053;DHT22;7101;51.600;7.310;2022-10-17T04:54:04;13.20;99.90
14053;DHT22;7101;51.600;7.310;2022-10-17T04:56:31;13.20;99.90
14053;DHT22;7101;51.600;7.310;2022-10-17T04:58:58;13.20;99.90
14053;DHT22;7101;51.600;7.310;2022-10-17T05:01:25;13.20;99.90
14053;DHT22;7101;51.600;7.310;2022-10-17T05:03:54;13.30;99.90
14053;DHT22;7101;51.600;7.310;2022-10-17T05:06:22;13.30;99.90
14053;DHT22;7101;51.600;7.310;2022-10-17T05:08:49;13.30;99.90
14053;DHT22;7101;51.600;7.310;2022-10-17T05:11:18;13.30;99.90
14053;DHT22;7101;51.600;7.310;2022-10-17T05:13:49;13.40;99.90
14053;DHT22;7101;51.600;7.310;2022-10-17T05:16:17;13.40;99.90
14053;DHT22;7101;51.600;7.310;2022-10-17T05:18:46;13.40;99.90
14053;DHT22;7101;51.600;7.310;2022-10-17T05:21:14;13.50;99.90
14053;DHT22;7101;51.600;7.310;2022-10-17T05:23:42;13.60;99.90
14053;DHT22;7101;51.600;7.310;2022-10-17T05:26:09;13.60;99.90
14053;DHT22;7101;51.600;7.310;2022-10-17T05:28:37;13.60;99.90
14053;DHT22;7101;51.600;7.310;2022-10-17T05:31:05;13.80;99.90
14053;DHT22;7101;51.600;7.310;2022-10-17T05:33:32;13.90;99.90
14053;DHT22;7101;51.600;7.310;2022-10-17T05:35:59;14.00;99.90
14053;DHT22;7101;51.600;7.310;2022-10-17T05:38:27;14.00;99.90
14053;DHT22;7101;51.600;7.310;2022-10-17T05:40:56;14.00;99.90
14053;DHT22;7101;51.600;7.310;2022-10-17T05:43:24;14.10;99.90
14053;DHT22;7101;51.600;7.310;2022-10-17T05:45:51;14.20;99.90
14053;DHT22;7101;51.600;7.310;2022-10-17T05:48:18;14.20;99.90
14053;DHT22;7101;51.600;7.310;2022-10-17T05:50:46;14.30;99.90
14053;DHT22;7101;51.600;7.310;2022-10-17T05:53:13;14.40;99.90
14053;DHT22;7101;51.600;7.310;2022-10-17T05:55:41;14.40;99.90
14053;DHT22;7101;51.600;7.310;2022-10-17T05:58:08;14.50;99.90
14053;DHT22;7101;51.600;7.310;2022-10-17T06:00:35;14.50;99.90
14053;DHT22;7101;51.600;7.310;2022-10-17T06:03:01;14.50;99.90
14053;DHT22;7101;51.600;7.310;2022-10-17T06:05:29;14.50;99.90
14053;DHT22;7101;51.600;7.310;2022-10-17T06:07:56;14.50;99.90
14053;DHT22;7101;51.600;7.310;2022-10-17T06:10:22;14.60;99.90
14053;DHT22;7101;51.600;7.310;2022-10-17T06:12:51;14.60;99.90
14053;DHT22;7101;51.600;7.310;2022-10-17T06:15:17;14.70;99.90
14053;DHT22;7101;51.600;7.310;2022-10-17T06:17:47;14.70;99.90
14053;DHT22;7101;51.600;7.310;2022-10-17T06:20:14;14.80;99.90
14053;DHT22;7101;51.600;7.310;2022-10-17T06:22:41;14.80;99.90
14053;DHT22;7101;51.600;7.310;2022-10-17T06:25:08;14.90;99.90
14053;DHT22;7101;51.600;7.310;2022-10-17T06:27:35;14.90;99.90
14053;DHT22;7101;51.600;7.310;2022-10-17T06:30:04;15.00;99.90
14053;DHT22;7101;51.600;7.310;2022-10-17T06:32:32;15.10;99.90
14053;DHT22;7101;51.600;7.310;2022-10-17T06:34:59;15.00;99.90
14053;DHT22;7101;51.600;7.310;2022-10-17T06:37:29;15.00;99.90
14053;DHT22;7101;51.600;7.310;2022-10-17T06:39:56;15.10;99.90
14053;DHT22;7101;51.600;7.310;2022-10-17T06:42:23;15.10;99.90
14053;DHT22;7101;51.600;7.310;2022-10-17T06:44:51;15.20;99.90
14053;DHT22;7101;51.600;7.310;2022-10-17T06:47:21;15.30;99.90
14053;DHT22;7101;51.600;7.310;2022-10-17T06:49:48;15.40;99.90
14053;DHT22;7101;51.600;7.310;2022-10-17T06:52:15;15.40;99.90
14053;DHT22;7101;51.600;7.310;2022-10-17T06:54:42;15.50;99.90
14053;DHT22;7101;51.600;7.310;2022-10-17T06:57:09;15.60;99.90
14053;DHT22;7101;51.600;7.310;2022-10-17T06:59:36;15.70;99.90
14053;DHT22;7101;51.600;7.310;2022-10-17T07:02:04;15.80;99.90
14053;DHT22;7101;51.600;7.310;2022-10-17T07:04:33;15.90;99.90
14053;DHT22;7101;51.600;7.310;2022-10-17T07:07:00;16.00;99.90
14053;DHT22;7101;51.600;7.310;2022-10-17T07:09:27;16.20;99.90
14053;DHT22;7101;51.600;7.310;2022-10-17T07:11:54;16.50;99.90
14053;DHT22;7101;51.600;7.310;2022-10-17T07:14:21;16.70;99.90
14053;DHT22;7101;51.600;7.310;2022-10-17T07:16:57;16.80;99.90
14053;DHT22;7101;51.600;7.310;2022-10-17T07:19:24;16.90;99.90
14053;DHT22;7101;51.600;7.310;2022-10-17T07:21:54;17.00;99.90
14053;DHT22;7101;51.600;7.310;2022-10-17T07:24:22;17.20;99.90
14053;DHT22;7101;51.600;7.310;2022-10-17T07:26:49;17.20;99.90
14053;DHT22;7101;51.600;7.310;2022-10-17T07:29:16;17.40;99.90
14053;DHT22;7101;51.600;7.310;2022-10-17T07:31:43;17.70;99.90
14053;DHT22;7101;51.600;7.310;2022-10-17T07:34:13;17.80;99.90
14053;DHT22;7101;51.600;7.310;2022-10-17T07:36:40;17.90;99.90
14053;DHT22;7101;51.600;7.310;2022-10-17T07:39:08;18.00;99.90
14053;DHT22;7101;51.600;7.310;2022-10-17T07:41:36;18.20;99.90
14053;DHT22;7101;51.600;7.310;2022-10-17T07:44:03;18.50;99.90
14053;DHT22;7101;51.600;7.310;2022-10-17T07:46:31;18.80;99.90
14053;DHT22;7101;51.600;7.310;2022-10-17T07:48:59;18.70;99.90
14053;DHT22;7101;51.600;7.310;2022-10-17T07:51:26;18.60;99.90
14053;DHT22;7101;51.600;7.310;2022-10-17T07:53:54;18.60;99.90
14053;DHT22;7101;51.600;7.310;2022-10-17T07:56:22;18.70;99.90
14053;DHT22;7101;51.600;7.310;2022-10-17T07:58:49;18.90;99.90
14053;DHT22;7101;51.600;7.310;2022-10-17T08:01:16;19.00;99.90
14053;DHT22;7101;51.600;7.310;2022-10-17T08:03:45;19.20;99.90
14053;DHT22;7101;51.600;7.310;2022-10-17T08:06:13;19.20;99.90
14053;DHT22;7101;51.600;7.310;2022-10-17T08:08:41;19.20;99.90
14053;DHT22;7101;51.600;7.310;2022-10-17T08:11:11;19.20;99.90
14053;DHT22;7101;51.600;7.310;2022-10-17T08:13:41;19.20;99.90
14053;DHT22;7101;51.600;7.310;2022-10-17T08:16:10;19.20;99.90
14053;DHT22;7101;51.600;7.310;2022-10-17T08:18:39;19.30;99.90
14053;DHT22;7101;51.600;7.310;2022-10-17T08:21:07;19.10;99.90
14053;DHT22;7101;51.600;7.310;2022-10-17T08:23:35;19.20;99.90
14053;DHT22;7101;51.600;7.310;2022-10-17T08:26:04;19.30;99.90
14053;DHT22;7101;51.600;7.310;2022-10-17T08:28:34;19.40;99.90
14053;DHT22;7101;51.600;7.310;2022-10-17T08:31:03;19.40;99.90
14053;DHT22;7101;51.600;7.310;2022-10-17T08:33:30;19.60;99.90
14053;DHT22;7101;51.600;7.310;2022-10-17T08:35:58;19.70;99.90
14053;DHT22;7101;51.600;7.310;2022-10-17T08:38:26;19.90;99.90
14053;DHT22;7101;51.600;7.310;2022-10-17T08:40:58;19.90;99.90
14053;DHT22;7101;51.600;7.310;2022-10-17T08:43:33;20.20;99.90
14053;DHT22;7101;51.600;7.310;2022-10-17T08:46:05;20.30;99.90
14053;DHT22;7101;51.600;7.310;2022-10-17T08:48:38;20.40;99.90
14053;DHT22;7101;51.600;7.310;2022-10-17T08:51:11;20.60;99.90
14053;DHT22;7101;51.600;7.310;2022-10-17T08:53:44;20.70;99.90
14053;DHT22;7101;51.600;7.310;2022-10-17T08:56:17;21.00;99.90
14053;DHT22;7101;51.600;7.310;2022-10-17T08:58:45;21.00;99.90
14053;DHT22;7101;51.600;7.310;2022-10-17T09:01:30;20.90;99.90
14053;DHT22;7101;51.600;7.310;2022-10-17T09:06:53;20.70;99.90
14053;DHT22;7101;51.600;7.310;2022-10-17T09:09:31;21.00;99.90
14053;DHT22;7101;51.600;7.310;2022-10-17T09:12:10;21.20;99.90
14053;DHT22;7101;51.600;7.310;2022-10-17T09:17:46;21.40;99.90
14053;DHT22;7101;51.600;7.310;2022-10-17T09:20:19;21.10;99.90
14053;DHT22;7101;51.600;7.310;2022-10-17T09:22:50;21.00;99.90
14053;DHT22;7101;51.600;7.310;2022-10-17T09:25:20;21.00;99.90
14053;DHT22;7101;51.600;7.310;2022-10-17T09:27:50;21.00;99.90
14053;DHT22;7101;51.600;7.310;2022-10-17T09:30:27;21.10;99.90
14053;DHT22;7101;51.600;7.310;2022-10-17T09:32:58;21.30;99.90
14053;DHT22;7101;51.600;7.310;2022-10-17T09:35:26;21.30;99.90
14053;DHT22;7101;51.600;7.310;2022-10-17T09:37:54;21.20;99.90
14053;DHT22;7101;51.600;7.310;2022-10-17T09:40:25;21.10;99.90
14053;DHT22;7101;51.600;7.310;2022-10-17T09:42:53;21.10;99.90
14053;DHT22;7101;51.600;7.310;2022-10-17T09:45:22;21.00;99.90
14053;DHT22;7101;51.600;7.310;2022-10-17T09:47:59;21.10;99.90
14053;DHT22;7101;51.600;7.310;2022-10-17T09:50:29;21.20;99.90
14053;DHT22;7101;51.600;7.310;2022-10-17T09:52:59;21.50;99.90
14053;DHT22;7101;51.600;7.310;2022-10-17T09:55:36;21.70;99.90
14053;DHT22;7101;51.600;7.310;2022-10-17T09:58:05;21.80;99.90
14053;DHT22;7101;51.600;7.310;2022-10-17T10:00:34;22.20;99.90
14053;DHT22;7101;51.600;7.310;2022-10-17T10:03:12;22.30;99.90
14053;DHT22;7101;51.600;7.310;2022-10-17T10:05:40;22.30;99.90
14053;DHT22;7101;51.600;7.310;2022-10-17T10:08:13;22.50;99.90
14053;DHT22;7101;51.600;7.310;2022-10-17T10:10:40;22.40;99.90
14053;DHT22;7101;51.600;7.310;2022-10-17T10:13:16;22.50;99.90
14053;DHT22;7101;51.600;7.310;2022-10-17T10:15:46;22.70;99.90
14053;DHT22;7101;51.600;7.310;2022-10-17T10:18:36;22.60;99.90
14053;DHT22;7101;51.600;7.310;2022-10-17T10:21:07;22.50;99.90
14053;DHT22;7101;51.600;7.310;2022-10-17T10:23:34;22.20;99.90
14053;DHT22;7101;51.600;7.310;2022-10-17T10:28:54;22.00;99.90
14053;DHT22;7101;51.600;7.310;2022-10-17T10:31:28;22.00;99.90
14053;DHT22;7101;51.600;7.310;2022-10-17T10:33:58;21.80;99.90
14053;DHT22;7101;51.600;7.310;2022-10-17T10:36:42;21.80;99.90
14053;DHT22;7101;51.600;7.310;2022-10-17T10:39:25;21.80;99.90
14053;DHT22;7101;51.600;7.310;2022-10-17T10:41:54;21.70;99.90
14053;DHT22;7101;51.600;7.310;2022-10-17T10:44:24;21.70;99.90
14053;DHT22;7101;51.600;7.310;2022-10-17T10:47:07;21.60;99.90
14053;DHT22;7101;51.600;7.310;2022-10-17T10:49:37;21.40;99.90
14053;DHT22;7101;51.600;7.310;2022-10-17T10:52:05;21.40;99.90
14053;DHT22;7101;51.600;7.310;2022-10-17T10:54:38;21.60;99.90
14053;DHT22;7101;51.600;7.310;2022-10-17T10:57:12;21.70;99.90
14053;DHT22;7101;51.600;7.310;2022-10-17T11:00:02;21.90;99.90
14053;DHT22;7101;51.600;7.310;2022-10-17T11:02:35;21.90;99.90
14053;DHT22;7101;51.600;7.310;2022-10-17T11:05:13;21.90;99.90
14053;DHT22;7101;51.600;7.310;2022-10-17T11:07:45;21.90;99.90
14053;DHT22;7101;51.600;7.310;2022-10-17T11:10:22;21.90;99.90
14053;DHT22;7101;51.600;7.310;2022-10-17T11:12:55;22.10;99.90
14053;DHT22;7101;51.600;7.310;2022-10-17T11:15:28;22.10;99.90
14053;DHT22;7101;51.600;7.310;2022-10-17T11:17:59;22.00;99.90
14053;DHT22;7101;51.600;7.310;2022-10-17T11:20:37;21.90;99.90
14053;DHT22;7101;51.600;7.310;2022-10-17T11:23:15;21.80;99.90
14053;DHT22;7101;51.600;7.310;2022-10-17T11:25:46;21.60;99.90
14053;DHT22;7101;51.600;7.310;2022-10-17T11:28:17;21.30;99.90
14053;DHT22;7101;51.600;7.310;2022-10-17T11:30:47;21.10;99.90
14053;DHT22;7101;51.600;7.310;2022-10-17T11:33:23;21.00;99.90
14053;DHT22;7101;51.600;7.310;2022-10-17T11:35:55;20.90;99.90
14053;DHT22;7101;51.600;7.310;2022-10-17T11:38:28;21.00;99.90
14053;DHT22;7101;51.600;7.310;2022-10-17T11:40:58;21.10;99.90
14053;DHT22;7101;51.600;7.310;2022-10-17T11:43:31;21.20;99.90
14053;DHT22;7101;51.600;7.310;2022-10-17T11:46:03;21.30;99.90
14053;DHT22;7101;51.600;7.310;2022-10-17T11:48:34;21.30;99.90
14053;DHT22;7101;51.600;7.310;2022-10-17T11:51:08;21.30;99.90
14053;DHT22;7101;51.600;7.310;2022-10-17T11:53:45;21.40;99.90
14053;DHT22;7101;51.600;7.310;2022-10-17T11:56:18;21.50;99.90
14053;DHT22;7101;51.600;7.310;2022-10-17T11:58:51;21.60;99.90
14053;DHT22;7101;51.600;7.310;2022-10-17T12:01:26;21.50;99.90
14053;DHT22;7101;51.600;7.310;2022-10-17T12:04:10;21.60;99.90
14053;DHT22;7101;51.600;7.310;2022-10-17T12:06:51;21.70;99.90
14053;DHT22;7101;51.600;7.310;2022-10-17T12:09:25;22.00;99.90
14053;DHT22;7101;51.600;7.310;2022-10-17T12:11:54;22.30;99.90
14053;DHT22;7101;51.600;7.310;2022-10-17T12:14:46;22.40;99.90
14053;DHT22;7101;51.600;7.310;2022-10-17T12:17:37;22.60;99.90
14053;DHT22;7101;51.600;7.310;2022-10-17T12:20:31;22.30;99.90
14053;DHT22;7101;51.600;7.310;2022-10-17T12:23:05;22.20;99.90
14053;DHT22;7101;51.600;7.310;2022-10-17T12:25:48;22.10;99.90
14053;DHT22;7101;51.600;7.310;2022-10-17T12:28:24;22.20;99.90
14053;DHT22;7101;51.600;7.310;2022-10-17T12:30:57;21.90;99.90
14053;DHT22;7101;51.600;7.310;2022-10-17T12:33:31;21.90;99.90
14053;DHT22;7101;51.600;7.310;2022-10-17T12:42:46;21.60;99.90
14053;DHT22;7101;51.600;7.310;2022-10-17T12:45:48;21.40;99.90
14053;DHT22;7101;51.600;7.310;2022-10-17T12:48:57;21.40;99.90
14053;DHT22;7101;51.600;7.310;2022-10-17T12:51:24;21.30;99.90
14053;DHT22;7101;51.600;7.310;2022-10-17T12:53:57;21.10;99.90
14053;DHT22;7101;51.600;7.310;2022-10-17T12:56:33;21.00;99.90
14053;DHT22;7101;51.600;7.310;2022-10-17T12:59:06;20.90;99.90
14053;DHT22;7101;51.600;7.310;2022-10-17T13:01:36;20.90;99.90
14053;DHT22;7101;51.600;7.310;2022-10-17T13:04:04;20.80;99.90
14053;DHT22;7101;51.600;7.310;2022-10-17T13:06:37;20.80;99.90
14053;DHT22;7101;51.600;7.310;2022-10-17T13:11:51;20.60;99.90
14053;DHT22;7101;51.600;7.310;2022-10-17T13:14:21;20.50;99.90
14053;DHT22;7101;51.600;7.310;2022-10-17T13:16:53;20.50;99.90
14053;DHT22;7101;51.600;7.310;2022-10-17T13:19:22;20.50;99.90
14053;DHT22;7101;51.600;7.310;2022-10-17T13:21:50;20.40;99.90
14053;DHT22;7101;51.600;7.310;2022-10-17T13:24:22;20.40;99.90
14053;DHT22;7101;51.600;7.310;2022-10-17T13:26:53;20.50;99.90
14053;DHT22;7101;51.600;7.310;2022-10-17T13:29:28;20.60;99.90
14053;DHT22;7101;51.600;7.310;2022-10-17T13:31:59;20.70;99.90
14053;DHT22;7101;51.600;7.310;2022-10-17T13:34:27;20.60;99.90
14053;DHT22;7101;51.600;7.310;2022-10-17T13:36:56;20.60;99.90
14053;DHT22;7101;51.600;7.310;2022-10-17T13:39:24;20.50;99.90
14053;DHT22;7101;51.600;7.310;2022-10-17T13:41:52;20.40;99.90
14053;DHT22;7101;51.600;7.310;2022-10-17T13:44:22;20.30;99.90
14053;DHT22;7101;51.600;7.310;2022-10-17T13:46:51;20.40;99.90
14053;DHT22;7101;51.600;7.310;2022-10-17T13:49:20;20.30;99.90
14053;DHT22;7101;51.600;7.310;2022-10-17T13:51:50;20.10;99.90
14053;DHT22;7101;51.600;7.310;2022-10-17T13:54:36;20.10;99.90
14053;DHT22;7101;51.600;7.310;2022-10-17T13:57:05;20.00;99.90
14053;DHT22;7101;51.600;7.310;2022-10-17T13:59:42;20.00;99.90
14053;DHT22;7101;51.600;7.310;2022-10-17T14:02:15;20.00;99.90
14053;DHT22;7101;51.600;7.310;2022-10-17T14:04:42;19.90;99.90
14053;DHT22;7101;51.600;7.310;2022-10-17T14:07:22;19.90;99.90
14053;DHT22;7101;51.600;7.310;2022-10-17T14:09:50;19.80;99.90
14053;DHT22;7101;51.600;7.310;2022-10-17T14:12:18;19.70;99.90
14053;DHT22;7101;51.600;7.310;2022-10-17T14:14:47;19.70;99.90
14053;DHT22;7101;51.600;7.310;2022-10-17T14:17:21;19.80;99.90
14053;DHT22;7101;51.600;7.310;2022-10-17T14:19:51;19.80;99.90
14053;DHT22;7101;51.600;7.310;2022-10-17T14:22:25;19.70;99.90
14053;DHT22;7101;51.600;7.310;2022-10-17T14:24:53;19.70;74.10
14053;DHT22;7101;51.600;7.310;2022-10-17T14:27:26;19.70;90.50
14053;DHT22;7101;51.600;7.310;2022-10-17T14:29:55;19.80;97.90
14053;DHT22;7101;51.600;7.310;2022-10-17T14:32:27;19.90;85.90
14053;DHT22;7101;51.600;7.310;2022-10-17T14:34:56;20.00;84.70
14053;DHT22;7101;51.600;7.310;2022-10-17T14:37:31;20.10;31.00
14053;DHT22;7101;51.600;7.310;2022-10-17T14:39:59;20.10;30.70
14053;DHT22;7101;51.600;7.310;2022-10-17T14:42:26;20.20;14.20
14053;DHT22;7101;51.600;7.310;2022-10-17T14:44:55;20.10;3.70
14053;DHT22;7101;51.600;7.310;2022-10-17T14:47:27;20.10;17.10
14053;DHT22;7101;51.600;7.310;2022-10-17T14:50:03;20.10;3.20
14053;DHT22;7101;51.600;7.310;2022-10-17T14:52:32;20.10;1.00
14053;DHT22;7101;51.600;7.310;2022-10-17T14:55:11;20.00;1.00
14053;DHT22;7101;51.600;7.310;2022-10-17T14:57:42;19.90;18.80
14053;DHT22;7101;51.600;7.310;2022-10-17T15:00:13;19.70;36.20
14053;DHT22;7101;51.600;7.310;2022-10-17T15:02:42;19.70;30.00
14053;DHT22;7101;51.600;7.310;2022-10-17T15:05:09;19.60;38.60
14053;DHT22;7101;51.600;7.310;2022-10-17T15:07:35;19.60;39.00
14053;DHT22;7101;51.600;7.310;2022-10-17T15:10:03;19.60;35.40
14053;DHT22;7101;51.600;7.310;2022-10-17T15:12:30;19.60;40.70
14053;DHT22;7101;51.600;7.310;2022-10-17T15:14:57;19.50;34.30
14053;DHT22;7101;51.600;7.310;2022-10-17T15:17:27;19.50;22.30
14053;DHT22;7101;51.600;7.310;2022-10-17T15:19:57;19.50;8.90
14053;DHT22;7101;51.600;7.310;2022-10-17T15:22:24;19.50;6.00
14053;DHT22;7101;51.600;7.310;2022-10-17T15:24:51;19.60;1.00
14053;DHT22;7101;51.600;7.310;2022-10-17T15:27:20;19.50;1.00
14053;DHT22;7101;51.600;7.310;2022-10-17T15:29:47;19.50;1.00
14053;DHT22;7101;51.600;7.310;2022-10-17T15:32:15;19.50;1.00
14053;DHT22;7101;51.600;7.310;2022-10-17T15:34:42;19.50;1.00
14053;DHT22;7101;51.600;7.310;2022-10-17T15:37:17;19.40;1.00
14053;DHT22;7101;51.600;7.310;2022-10-17T15:39:47;19.40;1.00
14053;DHT22;7101;51.600;7.310;2022-10-17T15:42:17;19.40;1.00
14053;DHT22;7101;51.600;7.310;2022-10-17T15:44:45;19.40;1.00
14053;DHT22;7101;51.600;7.310;2022-10-17T15:47:21;19.30;2.40
14053;DHT22;7101;51.600;7.310;2022-10-17T15:49:49;19.20;46.80
14053;DHT22;7101;51.600;7.310;2022-10-17T15:52:17;19.20;82.10
14053;DHT22;7101;51.600;7.310;2022-10-17T15:54:44;19.00;99.90
14053;DHT22;7101;51.600;7.310;2022-10-17T15:57:15;18.90;99.90
14053;DHT22;7101;51.600;7.310;2022-10-17T15:59:43;18.80;99.90
14053;DHT22;7101;51.600;7.310;2022-10-17T16:02:12;18.80;99.90
14053;DHT22;7101;51.600;7.310;2022-10-17T16:04:40;18.70;99.90
14053;DHT22;7101;51.600;7.310;2022-10-17T16:07:07;18.70;99.90
14053;DHT22;7101;51.600;7.310;2022-10-17T16:09:35;18.60;99.90
14053;DHT22;7101;51.600;7.310;2022-10-17T16:12:04;18.60;99.90
14053;DHT22;7101;51.600;7.310;2022-10-17T16:14:31;18.50;99.90
14053;DHT22;7101;51.600;7.310;2022-10-17T16:16:58;18.50;99.90
14053;DHT22;7101;51.600;7.310;2022-10-17T16:19:26;18.50;99.90
14053;DHT22;7101;51.600;7.310;2022-10-17T16:21:55;18.40;99.90
14053;DHT22;7101;51.600;7.310;2022-10-17T16:24:22;18.40;99.90
14053;DHT22;7101;51.600;7.310;2022-10-17T16:26:51;18.40;99.90